Terminal Aerodrome Forecast
Issued by NWS

Home | Current Version | Previous Version | Graphics & Text | Print | Product List | Glossary On
Versions: 1 2 3 4 5 6 7 8 9 10 11 12
000
FTUS43 KMPX 302332
TAFAXN
TAF
KAXN 302332Z 0100/0124 11005KT P6SM FEW040 BKN150
     FM010600 13005KT P6SM OVC100
     FM011000 14006KT P6SM VCSH SCT040 OVC080=

USA.gov is the U.S. government's official web portal to all federal, state and local government web resources and services.